Airfield :
LOGIN :

Register | Disclaimer

   EN    FR    IT 

 










Legend :    VFR   Marginal VFR   IFR   Intensive IFR   Very Intensive IFR
Visi :
Ceiling :
>= 8 km
>= 3000ft
5 to 8 km
1000 to 3000 ft
1500m to 5 km
500 to 1000 ft
800 to 1500m
200 to 500 ft
< 800m
< 200 ft
Symbols :   Thunderstorms  Fog  Heavy snow  Heavy precipitations  Wind > 20 kt
SIGMETs :     Misc.  Thunderstorms  Icing  Turbulence  Mountain Waves  Volcanic Ashes







- Airport Elevation : 16 ft
- IATA code : SDR


LEXJ - Santander Cantabria

CURRENT METAR :
  • 210230Z AUTO VRB02KT 7000 NCD 12/12 Q1012

EXPIRED METARs :
  • 210200Z AUTO 17002KT 6000 NCD 12/12 Q1012
  • 210130Z AUTO 17003KT 4900 BR NSC 12/12 Q1012
  • 210100Z AUTO 19002KT 5000 BR NSC 12/12 Q1013
  • 210030Z AUTO 20002KT 4600 BR NSC 13/13 Q1013
  • 210000Z AUTO 00000KT 6000 NCD 13/13 Q1013

TAF TAF LEXJ
Valid from the 21 at 03:00 until the 22 at 03:00 UTC


210200Z 2103/2203 VRB03KT 8000 FEW020 TX20/2114Z TN10/2107Z
PROB40
TEMPO 2103/2109 3000 BR BKN010
BECMG 2108/2112 35010KT
PROB40
TEMPO 2112/2121 SCT030TCU
BECMG 2118/2122 VRB03KT
PROB40
TEMPO 2121/2203 3000 BR BKN010
No reported NOTAMs for that airfield.



MET'MAP, your aeronautical weather chart ! - Copyright ORBIFLY December 2007 - Disclaimer

ORBIFLY MET'MAP TEAM :

Programming & Development : Alexandra Zaïnal
Concept & Development : Baudouin d'Aumeries
Co-Development & Prog : Marc-Olivier Méhu
Technical & hardware support : Manuel Goepfert

Contact : metmap@orbifly.com




SOURCES & CREDITS :

   NOAA